sensor_id;sensor_type;location;lat;lon;timestamp;temperature;humidity
8662;DHT22;29684;47.722;9.388;2023-03-04T00:01:54;1.80;99.90
8662;DHT22;29684;47.722;9.388;2023-03-04T00:04:38;1.80;99.90
8662;DHT22;29684;47.722;9.388;2023-03-04T00:07:22;1.80;99.90
8662;DHT22;29684;47.722;9.388;2023-03-04T00:10:07;1.70;99.90
8662;DHT22;29684;47.722;9.388;2023-03-04T00:12:51;1.70;99.90
8662;DHT22;29684;47.722;9.388;2023-03-04T00:15:35;1.70;99.90
8662;DHT22;29684;47.722;9.388;2023-03-04T00:18:20;1.60;99.90
8662;DHT22;29684;47.722;9.388;2023-03-04T00:21:04;1.60;99.90
8662;DHT22;29684;47.722;9.388;2023-03-04T00:23:49;1.50;99.90
8662;DHT22;29684;47.722;9.388;2023-03-04T00:26:33;1.50;99.90
8662;DHT22;29684;47.722;9.388;2023-03-04T00:29:17;1.50;99.90
8662;DHT22;29684;47.722;9.388;2023-03-04T00:32:01;1.50;99.90
8662;DHT22;29684;47.722;9.388;2023-03-04T00:34:45;1.40;99.90
8662;DHT22;29684;47.722;9.388;2023-03-04T00:37:29;1.40;99.90
8662;DHT22;29684;47.722;9.388;2023-03-04T00:40:13;1.40;99.90
8662;DHT22;29684;47.722;9.388;2023-03-04T00:42:57;1.40;99.90
8662;DHT22;29684;47.722;9.388;2023-03-04T00:45:42;1.30;99.90
8662;DHT22;29684;47.722;9.388;2023-03-04T00:48:26;1.20;99.90
8662;DHT22;29684;47.722;9.388;2023-03-04T00:51:10;1.10;99.90
8662;DHT22;29684;47.722;9.388;2023-03-04T00:53:54;1.10;99.90
8662;DHT22;29684;47.722;9.388;2023-03-04T00:56:38;1.00;99.90
8662;DHT22;29684;47.722;9.388;2023-03-04T00:59:23;0.90;99.90
8662;DHT22;29684;47.722;9.388;2023-03-04T01:02:09;0.90;99.90
8662;DHT22;29684;47.722;9.388;2023-03-04T01:04:53;0.90;99.90
8662;DHT22;29684;47.722;9.388;2023-03-04T01:07:38;0.90;99.90
8662;DHT22;29684;47.722;9.388;2023-03-04T01:10:22;0.90;99.90
8662;DHT22;29684;47.722;9.388;2023-03-04T01:13:06;1.10;99.90
8662;DHT22;29684;47.722;9.388;2023-03-04T01:15:51;1.00;99.90
8662;DHT22;29684;47.722;9.388;2023-03-04T01:18:35;1.00;99.90
8662;DHT22;29684;47.722;9.388;2023-03-04T01:21:19;1.00;99.90
8662;DHT22;29684;47.722;9.388;2023-03-04T01:24:04;0.90;99.90
8662;DHT22;29684;47.722;9.388;2023-03-04T01:26:48;0.90;99.90
8662;DHT22;29684;47.722;9.388;2023-03-04T01:29:32;0.80;99.90
8662;DHT22;29684;47.722;9.388;2023-03-04T01:32:16;0.80;99.90
8662;DHT22;29684;47.722;9.388;2023-03-04T01:35:00;0.80;99.90
8662;DHT22;29684;47.722;9.388;2023-03-04T01:37:44;0.70;99.90
8662;DHT22;29684;47.722;9.388;2023-03-04T01:40:29;0.60;99.90
8662;DHT22;29684;47.722;9.388;2023-03-04T01:43:27;0.70;99.90
8662;DHT22;29684;47.722;9.388;2023-03-04T01:46:12;0.50;99.90
8662;DHT22;29684;47.722;9.388;2023-03-04T01:48:58;0.40;99.90
8662;DHT22;29684;47.722;9.388;2023-03-04T01:51:46;0.50;99.90
8662;DHT22;29684;47.722;9.388;2023-03-04T01:54:32;0.40;99.90
8662;DHT22;29684;47.722;9.388;2023-03-04T01:57:19;0.40;99.90
8662;DHT22;29684;47.722;9.388;2023-03-04T02:00:32;0.40;99.90
8662;DHT22;29684;47.722;9.388;2023-03-04T02:03:17;0.30;99.90
8662;DHT22;29684;47.722;9.388;2023-03-04T02:06:05;0.40;99.90
8662;DHT22;29684;47.722;9.388;2023-03-04T02:08:49;0.90;99.90
8662;DHT22;29684;47.722;9.388;2023-03-04T02:11:35;1.30;99.90
8662;DHT22;29684;47.722;9.388;2023-03-04T02:14:20;1.00;99.90
8662;DHT22;29684;47.722;9.388;2023-03-04T02:17:12;0.80;99.90
8662;DHT22;29684;47.722;9.388;2023-03-04T02:23:11;0.50;99.90
8662;DHT22;29684;47.722;9.388;2023-03-04T02:26:21;0.20;99.90
8662;DHT22;29684;47.722;9.388;2023-03-04T02:29:05;-0.10;99.90
8662;DHT22;29684;47.722;9.388;2023-03-04T02:31:52;-0.30;99.90
8662;DHT22;29684;47.722;9.388;2023-03-04T02:34:38;-0.20;99.90
8662;DHT22;29684;47.722;9.388;2023-03-04T02:37:23;-0.20;99.90
8662;DHT22;29684;47.722;9.388;2023-03-04T02:40:13;-0.20;99.90
8662;DHT22;29684;47.722;9.388;2023-03-04T02:43:00;-0.20;99.90
8662;DHT22;29684;47.722;9.388;2023-03-04T02:45:49;-0.30;99.90
8662;DHT22;29684;47.722;9.388;2023-03-04T02:48:34;-0.20;99.90
8662;DHT22;29684;47.722;9.388;2023-03-04T02:51:18;-0.10;99.90
8662;DHT22;29684;47.722;9.388;2023-03-04T02:54:02;0.00;99.90
8662;DHT22;29684;47.722;9.388;2023-03-04T02:56:48;0.10;99.90
8662;DHT22;29684;47.722;9.388;2023-03-04T02:59:34;0.00;99.90
8662;DHT22;29684;47.722;9.388;2023-03-04T03:02:18;-0.10;99.90
8662;DHT22;29684;47.722;9.388;2023-03-04T03:05:03;-0.20;99.90
8662;DHT22;29684;47.722;9.388;2023-03-04T03:07:47;-0.20;99.90
8662;DHT22;29684;47.722;9.388;2023-03-04T03:10:31;-0.30;99.90
8662;DHT22;29684;47.722;9.388;2023-03-04T03:13:16;-0.30;99.90
8662;DHT22;29684;47.722;9.388;2023-03-04T03:16:00;-0.30;99.90
8662;DHT22;29684;47.722;9.388;2023-03-04T03:18:44;-0.30;99.90
8662;DHT22;29684;47.722;9.388;2023-03-04T03:21:28;-0.20;99.90
8662;DHT22;29684;47.722;9.388;2023-03-04T03:24:12;-0.10;99.90
8662;DHT22;29684;47.722;9.388;2023-03-04T03:26:56;0.00;99.90
8662;DHT22;29684;47.722;9.388;2023-03-04T03:29:40;-0.20;99.90
8662;DHT22;29684;47.722;9.388;2023-03-04T03:32:24;-0.30;99.90
8662;DHT22;29684;47.722;9.388;2023-03-04T03:35:09;-0.20;99.90
8662;DHT22;29684;47.722;9.388;2023-03-04T03:37:54;-0.20;99.90
8662;DHT22;29684;47.722;9.388;2023-03-04T03:40:38;-0.20;99.90
8662;DHT22;29684;47.722;9.388;2023-03-04T03:43:22;-0.30;99.90
8662;DHT22;29684;47.722;9.388;2023-03-04T03:46:06;-0.60;99.90
8662;DHT22;29684;47.722;9.388;2023-03-04T03:48:50;-0.70;99.90
8662;DHT22;29684;47.722;9.388;2023-03-04T03:51:35;-0.70;99.90
8662;DHT22;29684;47.722;9.388;2023-03-04T03:54:19;-0.70;99.90
8662;DHT22;29684;47.722;9.388;2023-03-04T03:57:03;-0.70;99.90
8662;DHT22;29684;47.722;9.388;2023-03-04T03:59:47;-0.60;99.90
8662;DHT22;29684;47.722;9.388;2023-03-04T04:02:31;-0.50;99.90
8662;DHT22;29684;47.722;9.388;2023-03-04T04:05:15;-0.50;99.90
8662;DHT22;29684;47.722;9.388;2023-03-04T04:08:00;-0.60;99.90
8662;DHT22;29684;47.722;9.388;2023-03-04T04:10:44;-0.60;99.90
8662;DHT22;29684;47.722;9.388;2023-03-04T04:13:28;-0.70;99.90
8662;DHT22;29684;47.722;9.388;2023-03-04T04:16:12;-0.70;99.90
8662;DHT22;29684;47.722;9.388;2023-03-04T04:18:56;-0.70;99.90
8662;DHT22;29684;47.722;9.388;2023-03-04T04:21:40;-0.60;99.90
8662;DHT22;29684;47.722;9.388;2023-03-04T04:24:25;-0.70;99.90
8662;DHT22;29684;47.722;9.388;2023-03-04T04:27:09;-0.60;99.90
8662;DHT22;29684;47.722;9.388;2023-03-04T04:29:54;-0.70;99.90
8662;DHT22;29684;47.722;9.388;2023-03-04T04:32:38;-0.80;99.90
8662;DHT22;29684;47.722;9.388;2023-03-04T04:35:22;-0.90;99.90
8662;DHT22;29684;47.722;9.388;2023-03-04T04:38:07;-0.90;99.90
8662;DHT22;29684;47.722;9.388;2023-03-04T04:40:51;-0.90;99.90
8662;DHT22;29684;47.722;9.388;2023-03-04T04:43:35;-0.90;99.90
8662;DHT22;29684;47.722;9.388;2023-03-04T04:46:20;-0.90;99.90
8662;DHT22;29684;47.722;9.388;2023-03-04T04:49:05;-0.90;99.90
8662;DHT22;29684;47.722;9.388;2023-03-04T04:51:50;-0.70;99.90
8662;DHT22;29684;47.722;9.388;2023-03-04T04:54:34;-0.60;99.90
8662;DHT22;29684;47.722;9.388;2023-03-04T04:57:18;-0.40;99.90
8662;DHT22;29684;47.722;9.388;2023-03-04T05:00:04;-0.40;99.90
8662;DHT22;29684;47.722;9.388;2023-03-04T05:02:48;-0.40;99.90
8662;DHT22;29684;47.722;9.388;2023-03-04T05:05:32;-0.50;99.90
8662;DHT22;29684;47.722;9.388;2023-03-04T05:08:16;-0.60;99.90
8662;DHT22;29684;47.722;9.388;2023-03-04T05:11:02;-0.60;99.90
8662;DHT22;29684;47.722;9.388;2023-03-04T05:13:47;-0.50;99.90
8662;DHT22;29684;47.722;9.388;2023-03-04T05:16:32;-0.40;99.90
8662;DHT22;29684;47.722;9.388;2023-03-04T05:19:16;-0.30;99.90
8662;DHT22;29684;47.722;9.388;2023-03-04T05:22:00;-0.20;99.90
8662;DHT22;29684;47.722;9.388;2023-03-04T05:24:44;0.00;99.90
8662;DHT22;29684;47.722;9.388;2023-03-04T05:27:28;0.20;99.90
8662;DHT22;29684;47.722;9.388;2023-03-04T05:30:12;0.40;99.90
8662;DHT22;29684;47.722;9.388;2023-03-04T05:32:57;0.50;99.90
8662;DHT22;29684;47.722;9.388;2023-03-04T05:35:42;0.60;99.90
8662;DHT22;29684;47.722;9.388;2023-03-04T05:38:26;0.70;99.90
8662;DHT22;29684;47.722;9.388;2023-03-04T05:41:10;0.90;99.90
8662;DHT22;29684;47.722;9.388;2023-03-04T05:43:54;0.90;99.90
8662;DHT22;29684;47.722;9.388;2023-03-04T05:46:39;0.90;99.90
8662;DHT22;29684;47.722;9.388;2023-03-04T05:49:23;0.80;99.90
8662;DHT22;29684;47.722;9.388;2023-03-04T05:52:08;0.90;99.90
8662;DHT22;29684;47.722;9.388;2023-03-04T05:54:52;0.90;99.90
8662;DHT22;29684;47.722;9.388;2023-03-04T05:57:36;0.90;99.90
8662;DHT22;29684;47.722;9.388;2023-03-04T06:00:20;1.10;99.90
8662;DHT22;29684;47.722;9.388;2023-03-04T06:03:05;1.10;99.90
8662;DHT22;29684;47.722;9.388;2023-03-04T06:05:49;1.20;99.90
8662;DHT22;29684;47.722;9.388;2023-03-04T06:08:33;1.10;99.90
8662;DHT22;29684;47.722;9.388;2023-03-04T06:11:17;1.10;99.90
8662;DHT22;29684;47.722;9.388;2023-03-04T06:14:01;1.10;99.90
8662;DHT22;29684;47.722;9.388;2023-03-04T06:16:45;1.10;99.90
8662;DHT22;29684;47.722;9.388;2023-03-04T06:19:29;1.30;99.90
8662;DHT22;29684;47.722;9.388;2023-03-04T06:22:14;1.30;99.90
8662;DHT22;29684;47.722;9.388;2023-03-04T06:24:58;1.30;99.90
8662;DHT22;29684;47.722;9.388;2023-03-04T06:27:42;1.30;99.90
8662;DHT22;29684;47.722;9.388;2023-03-04T06:30:26;1.50;99.90
8662;DHT22;29684;47.722;9.388;2023-03-04T06:33:10;1.40;99.90
8662;DHT22;29684;47.722;9.388;2023-03-04T06:35:55;1.40;99.90
8662;DHT22;29684;47.722;9.388;2023-03-04T06:38:40;1.20;99.90
8662;DHT22;29684;47.722;9.388;2023-03-04T06:41:24;1.20;99.90
8662;DHT22;29684;47.722;9.388;2023-03-04T06:44:08;1.30;99.90
8662;DHT22;29684;47.722;9.388;2023-03-04T06:46:52;1.30;99.90
8662;DHT22;29684;47.722;9.388;2023-03-04T06:49:36;1.40;99.90
8662;DHT22;29684;47.722;9.388;2023-03-04T06:52:20;1.40;99.90
8662;DHT22;29684;47.722;9.388;2023-03-04T06:55:05;1.50;99.90
8662;DHT22;29684;47.722;9.388;2023-03-04T06:57:50;1.60;99.90
8662;DHT22;29684;47.722;9.388;2023-03-04T07:00:34;1.70;99.90
8662;DHT22;29684;47.722;9.388;2023-03-04T07:03:19;1.70;99.90
8662;DHT22;29684;47.722;9.388;2023-03-04T07:06:03;1.90;99.90
8662;DHT22;29684;47.722;9.388;2023-03-04T07:08:47;1.80;99.90
8662;DHT22;29684;47.722;9.388;2023-03-04T07:11:31;1.70;99.90
8662;DHT22;29684;47.722;9.388;2023-03-04T07:14:15;1.70;99.90
8662;DHT22;29684;47.722;9.388;2023-03-04T07:17:00;1.60;99.90
8662;DHT22;29684;47.722;9.388;2023-03-04T07:19:44;1.60;99.90
8662;DHT22;29684;47.722;9.388;2023-03-04T07:22:28;1.80;99.90
8662;DHT22;29684;47.722;9.388;2023-03-04T07:25:12;1.80;99.90
8662;DHT22;29684;47.722;9.388;2023-03-04T07:27:56;1.80;99.90
8662;DHT22;29684;47.722;9.388;2023-03-04T07:30:40;1.90;99.90
8662;DHT22;29684;47.722;9.388;2023-03-04T07:33:24;1.90;99.90
8662;DHT22;29684;47.722;9.388;2023-03-04T07:36:08;2.00;99.90
8662;DHT22;29684;47.722;9.388;2023-03-04T07:38:54;2.00;99.90
8662;DHT22;29684;47.722;9.388;2023-03-04T07:41:39;2.00;99.90
8662;DHT22;29684;47.722;9.388;2023-03-04T07:44:23;2.10;99.90
8662;DHT22;29684;47.722;9.388;2023-03-04T07:47:07;2.10;99.90
8662;DHT22;29684;47.722;9.388;2023-03-04T07:49:51;2.20;99.90
8662;DHT22;29684;47.722;9.388;2023-03-04T07:52:40;2.20;99.90
8662;DHT22;29684;47.722;9.388;2023-03-04T07:55:24;2.40;99.90
8662;DHT22;29684;47.722;9.388;2023-03-04T07:58:09;2.30;99.90
8662;DHT22;29684;47.722;9.388;2023-03-04T08:00:53;2.20;99.90
8662;DHT22;29684;47.722;9.388;2023-03-04T08:03:37;2.10;99.90
8662;DHT22;29684;47.722;9.388;2023-03-04T08:06:22;1.90;99.90
8662;DHT22;29684;47.722;9.388;2023-03-04T08:09:07;1.80;99.90
8662;DHT22;29684;47.722;9.388;2023-03-04T08:11:53;1.90;99.90
8662;DHT22;29684;47.722;9.388;2023-03-04T08:14:37;1.90;99.90
8662;DHT22;29684;47.722;9.388;2023-03-04T08:17:21;1.90;99.90
8662;DHT22;29684;47.722;9.388;2023-03-04T08:20:06;2.00;99.90
8662;DHT22;29684;47.722;9.388;2023-03-04T08:22:50;2.30;99.90
8662;DHT22;29684;47.722;9.388;2023-03-04T08:25:41;2.40;99.90
8662;DHT22;29684;47.722;9.388;2023-03-04T08:28:25;2.40;99.90
8662;DHT22;29684;47.722;9.388;2023-03-04T08:31:11;2.50;99.90
8662;DHT22;29684;47.722;9.388;2023-03-04T08:33:55;2.50;99.90
8662;DHT22;29684;47.722;9.388;2023-03-04T08:36:42;2.70;99.90
8662;DHT22;29684;47.722;9.388;2023-03-04T08:39:27;2.60;99.90
8662;DHT22;29684;47.722;9.388;2023-03-04T08:42:11;2.70;99.90
8662;DHT22;29684;47.722;9.388;2023-03-04T08:44:55;2.90;99.90
8662;DHT22;29684;47.722;9.388;2023-03-04T08:47:39;3.00;99.90
8662;DHT22;29684;47.722;9.388;2023-03-04T08:50:24;2.90;99.90
8662;DHT22;29684;47.722;9.388;2023-03-04T08:53:11;2.90;99.90
8662;DHT22;29684;47.722;9.388;2023-03-04T08:55:55;3.00;99.90
8662;DHT22;29684;47.722;9.388;2023-03-04T08:58:39;3.00;99.90
8662;DHT22;29684;47.722;9.388;2023-03-04T09:01:24;2.90;99.90
8662;DHT22;29684;47.722;9.388;2023-03-04T09:04:08;2.80;99.90
8662;DHT22;29684;47.722;9.388;2023-03-04T09:06:52;2.90;99.90
8662;DHT22;29684;47.722;9.388;2023-03-04T09:09:36;3.00;99.90
8662;DHT22;29684;47.722;9.388;2023-03-04T09:12:21;2.90;99.90
8662;DHT22;29684;47.722;9.388;2023-03-04T09:15:06;2.80;99.90
8662;DHT22;29684;47.722;9.388;2023-03-04T09:17:50;2.80;99.90
8662;DHT22;29684;47.722;9.388;2023-03-04T09:20:35;2.80;99.90
8662;DHT22;29684;47.722;9.388;2023-03-04T09:23:19;2.90;99.90
8662;DHT22;29684;47.722;9.388;2023-03-04T09:26:17;2.90;99.90
8662;DHT22;29684;47.722;9.388;2023-03-04T09:29:03;2.70;99.90
8662;DHT22;29684;47.722;9.388;2023-03-04T09:31:47;2.80;99.90
8662;DHT22;29684;47.722;9.388;2023-03-04T09:34:31;2.80;99.90
8662;DHT22;29684;47.722;9.388;2023-03-04T09:37:16;2.80;99.90
8662;DHT22;29684;47.722;9.388;2023-03-04T09:40:00;2.80;99.90
8662;DHT22;29684;47.722;9.388;2023-03-04T09:42:47;2.80;99.90
8662;DHT22;29684;47.722;9.388;2023-03-04T09:45:40;2.80;99.90
8662;DHT22;29684;47.722;9.388;2023-03-04T09:48:29;2.80;99.90
8662;DHT22;29684;47.722;9.388;2023-03-04T09:51:21;3.20;99.90
8662;DHT22;29684;47.722;9.388;2023-03-04T09:54:38;3.40;99.90
8662;DHT22;29684;47.722;9.388;2023-03-04T09:57:29;3.70;99.90
8662;DHT22;29684;47.722;9.388;2023-03-04T10:00:19;3.80;99.90
8662;DHT22;29684;47.722;9.388;2023-03-04T10:03:05;3.80;99.90
8662;DHT22;29684;47.722;9.388;2023-03-04T10:05:57;3.50;99.90
8662;DHT22;29684;47.722;9.388;2023-03-04T10:12:06;3.60;99.90
8662;DHT22;29684;47.722;9.388;2023-03-04T10:15:02;3.60;99.90
8662;DHT22;29684;47.722;9.388;2023-03-04T10:17:49;3.60;99.90
8662;DHT22;29684;47.722;9.388;2023-03-04T10:23:35;4.00;99.90
8662;DHT22;29684;47.722;9.388;2023-03-04T10:26:21;4.20;99.90
8662;DHT22;29684;47.722;9.388;2023-03-04T10:29:05;4.40;99.90
8662;DHT22;29684;47.722;9.388;2023-03-04T10:31:52;4.50;99.90
8662;DHT22;29684;47.722;9.388;2023-03-04T10:34:38;4.30;99.90
8662;DHT22;29684;47.722;9.388;2023-03-04T10:37:22;4.30;99.90
8662;DHT22;29684;47.722;9.388;2023-03-04T10:40:18;4.30;99.90
8662;DHT22;29684;47.722;9.388;2023-03-04T10:43:02;4.30;99.90
8662;DHT22;29684;47.722;9.388;2023-03-04T10:45:57;4.70;99.90
8662;DHT22;29684;47.722;9.388;2023-03-04T10:48:42;4.60;99.90
8662;DHT22;29684;47.722;9.388;2023-03-04T10:51:28;4.60;99.90
8662;DHT22;29684;47.722;9.388;2023-03-04T10:57:22;5.00;99.90
8662;DHT22;29684;47.722;9.388;2023-03-04T11:03:34;5.30;99.90
8662;DHT22;29684;47.722;9.388;2023-03-04T11:06:21;5.10;99.90
8662;DHT22;29684;47.722;9.388;2023-03-04T11:09:29;5.10;99.90
8662;DHT22;29684;47.722;9.388;2023-03-04T11:12:16;5.00;99.90
8662;DHT22;29684;47.722;9.388;2023-03-04T11:15:02;5.10;99.90
8662;DHT22;29684;47.722;9.388;2023-03-04T11:18:51;5.50;99.90
8662;DHT22;29684;47.722;9.388;2023-03-04T11:21:03;6.30;99.90
8662;DHT22;29684;47.722;9.388;2023-03-04T11:26:40;7.20;99.90
8662;DHT22;29684;47.722;9.388;2023-03-04T11:29:41;7.40;99.90
8662;DHT22;29684;47.722;9.388;2023-03-04T11:32:33;7.50;99.90
8662;DHT22;29684;47.722;9.388;2023-03-04T11:35:27;7.40;99.90
8662;DHT22;29684;47.722;9.388;2023-03-04T11:38:21;7.40;99.90
8662;DHT22;29684;47.722;9.388;2023-03-04T11:41:13;6.50;99.90
8662;DHT22;29684;47.722;9.388;2023-03-04T11:43:59;8.00;99.90
8662;DHT22;29684;47.722;9.388;2023-03-04T11:59:14;9.50;99.90
8662;DHT22;29684;47.722;9.388;2023-03-04T12:02:17;9.60;99.90
8662;DHT22;29684;47.722;9.388;2023-03-04T12:14:36;10.40;99.90
8662;DHT22;29684;47.722;9.388;2023-03-04T12:39:32;13.70;99.90
8662;DHT22;29684;47.722;9.388;2023-03-04T12:45:40;15.40;99.90
8662;DHT22;29684;47.722;9.388;2023-03-04T12:48:40;14.60;99.90
8662;DHT22;29684;47.722;9.388;2023-03-04T12:57:27;14.30;99.90
8662;DHT22;29684;47.722;9.388;2023-03-04T13:06:28;15.00;99.90
8662;DHT22;29684;47.722;9.388;2023-03-04T13:09:28;15.60;99.90
8662;DHT22;29684;47.722;9.388;2023-03-04T13:12:18;15.30;99.90
8662;DHT22;29684;47.722;9.388;2023-03-04T13:17:53;15.80;99.90
8662;DHT22;29684;47.722;9.388;2023-03-04T13:20:40;15.90;99.90
8662;DHT22;29684;47.722;9.388;2023-03-04T13:23:28;15.70;99.90
8662;DHT22;29684;47.722;9.388;2023-03-04T13:26:30;16.00;99.90
8662;DHT22;29684;47.722;9.388;2023-03-04T13:34:48;15.70;99.90
8662;DHT22;29684;47.722;9.388;2023-03-04T13:37:35;15.80;99.90
8662;DHT22;29684;47.722;9.388;2023-03-04T13:43:27;16.40;99.90
8662;DHT22;29684;47.722;9.388;2023-03-04T13:49:02;16.00;99.90
8662;DHT22;29684;47.722;9.388;2023-03-04T13:51:47;16.50;99.90
8662;DHT22;29684;47.722;9.388;2023-03-04T13:54:32;16.70;99.90
8662;DHT22;29684;47.722;9.388;2023-03-04T13:57:18;16.60;99.90
8662;DHT22;29684;47.722;9.388;2023-03-04T14:00:04;17.00;99.90
8662;DHT22;29684;47.722;9.388;2023-03-04T14:02:54;16.10;99.90
8662;DHT22;29684;47.722;9.388;2023-03-04T14:05:38;16.10;99.90
8662;DHT22;29684;47.722;9.388;2023-03-04T14:08:24;15.60;99.90
8662;DHT22;29684;47.722;9.388;2023-03-04T14:11:14;15.40;99.90
8662;DHT22;29684;47.722;9.388;2023-03-04T14:14:05;16.30;99.90
8662;DHT22;29684;47.722;9.388;2023-03-04T14:17:00;16.40;99.90
8662;DHT22;29684;47.722;9.388;2023-03-04T14:19:46;16.00;99.90
8662;DHT22;29684;47.722;9.388;2023-03-04T14:22:37;16.00;99.90
8662;DHT22;29684;47.722;9.388;2023-03-04T14:28:12;17.10;99.90
8662;DHT22;29684;47.722;9.388;2023-03-04T14:30:57;17.40;99.90
8662;DHT22;29684;47.722;9.388;2023-03-04T14:33:48;17.10;99.90
8662;DHT22;29684;47.722;9.388;2023-03-04T14:36:34;17.40;99.90
8662;DHT22;29684;47.722;9.388;2023-03-04T14:39:21;17.90;99.90
8662;DHT22;29684;47.722;9.388;2023-03-04T14:42:10;17.50;99.90
8662;DHT22;29684;47.722;9.388;2023-03-04T14:44:57;17.30;99.90
8662;DHT22;29684;47.722;9.388;2023-03-04T14:47:44;17.40;99.90
8662;DHT22;29684;47.722;9.388;2023-03-04T14:50:31;17.30;99.90
8662;DHT22;29684;47.722;9.388;2023-03-04T14:53:17;17.10;99.90
8662;DHT22;29684;47.722;9.388;2023-03-04T14:56:06;17.90;99.90
8662;DHT22;29684;47.722;9.388;2023-03-04T14:58:53;18.30;99.90
8662;DHT22;29684;47.722;9.388;2023-03-04T15:01:38;18.10;99.90
8662;DHT22;29684;47.722;9.388;2023-03-04T15:04:22;17.80;99.60
8662;DHT22;29684;47.722;9.388;2023-03-04T15:07:14;17.20;99.90
8662;DHT22;29684;47.722;9.388;2023-03-04T15:10:01;16.40;99.90
8662;DHT22;29684;47.722;9.388;2023-03-04T15:12:54;16.70;99.90
8662;DHT22;29684;47.722;9.388;2023-03-04T15:15:44;16.90;99.90
8662;DHT22;29684;47.722;9.388;2023-03-04T15:18:29;17.20;99.80
8662;DHT22;29684;47.722;9.388;2023-03-04T15:24:05;16.50;99.90
8662;DHT22;29684;47.722;9.388;2023-03-04T15:26:49;16.40;99.90
8662;DHT22;29684;47.722;9.388;2023-03-04T15:29:34;16.60;99.70
8662;DHT22;29684;47.722;9.388;2023-03-04T15:32:18;16.70;99.90
8662;DHT22;29684;47.722;9.388;2023-03-04T15:35:02;16.30;99.90
8662;DHT22;29684;47.722;9.388;2023-03-04T15:37:48;15.80;99.90
8662;DHT22;29684;47.722;9.388;2023-03-04T15:40:36;15.70;99.90
8662;DHT22;29684;47.722;9.388;2023-03-04T15:43:26;15.40;99.90
8662;DHT22;29684;47.722;9.388;2023-03-04T15:46:11;15.50;99.90
8662;DHT22;29684;47.722;9.388;2023-03-04T15:48:55;15.30;99.90
8662;DHT22;29684;47.722;9.388;2023-03-04T15:51:39;15.10;99.90
8662;DHT22;29684;47.722;9.388;2023-03-04T15:54:25;14.70;99.90
8662;DHT22;29684;47.722;9.388;2023-03-04T15:57:22;13.80;99.90
8662;DHT22;29684;47.722;9.388;2023-03-04T16:00:07;12.60;99.90
8662;DHT22;29684;47.722;9.388;2023-03-04T16:02:51;12.10;99.90
8662;DHT22;29684;47.722;9.388;2023-03-04T16:05:37;11.50;99.90
8662;DHT22;29684;47.722;9.388;2023-03-04T16:08:21;11.10;99.90
8662;DHT22;29684;47.722;9.388;2023-03-04T16:11:27;10.70;99.90
8662;DHT22;29684;47.722;9.388;2023-03-04T16:14:13;10.10;99.90
8662;DHT22;29684;47.722;9.388;2023-03-04T16:16:58;10.10;99.90
8662;DHT22;29684;47.722;9.388;2023-03-04T16:19:42;10.00;99.90
8662;DHT22;29684;47.722;9.388;2023-03-04T16:22:28;9.80;99.90
8662;DHT22;29684;47.722;9.388;2023-03-04T16:25:14;9.80;99.90
8662;DHT22;29684;47.722;9.388;2023-03-04T16:27:59;9.40;99.90
8662;DHT22;29684;47.722;9.388;2023-03-04T16:30:46;9.20;99.90
8662;DHT22;29684;47.722;9.388;2023-03-04T16:33:30;9.10;99.90
8662;DHT22;29684;47.722;9.388;2023-03-04T16:36:18;9.10;99.90
8662;DHT22;29684;47.722;9.388;2023-03-04T16:39:07;9.20;99.90
8662;DHT22;29684;47.722;9.388;2023-03-04T16:41:59;9.10;99.90
8662;DHT22;29684;47.722;9.388;2023-03-04T16:44:45;9.10;99.90
8662;DHT22;29684;47.722;9.388;2023-03-04T16:47:29;9.00;99.90
8662;DHT22;29684;47.722;9.388;2023-03-04T16:50:16;8.80;99.90
8662;DHT22;29684;47.722;9.388;2023-03-04T16:53:02;8.80;99.90
8662;DHT22;29684;47.722;9.388;2023-03-04T16:55:47;8.70;99.90
8662;DHT22;29684;47.722;9.388;2023-03-04T16:58:31;8.60;99.90
8662;DHT22;29684;47.722;9.388;2023-03-04T17:01:22;8.40;99.90
8662;DHT22;29684;47.722;9.388;2023-03-04T17:04:06;8.20;99.90
8662;DHT22;29684;47.722;9.388;2023-03-04T17:06:50;8.20;99.90
8662;DHT22;29684;47.722;9.388;2023-03-04T17:09:34;8.00;99.90
8662;DHT22;29684;47.722;9.388;2023-03-04T17:12:20;8.00;99.90
8662;DHT22;29684;47.722;9.388;2023-03-04T17:15:05;7.90;99.90
8662;DHT22;29684;47.722;9.388;2023-03-04T17:17:50;7.80;99.90
8662;DHT22;29684;47.722;9.388;2023-03-04T17:20:35;7.70;99.90
8662;DHT22;29684;47.722;9.388;2023-03-04T17:23:20;7.70;99.90
8662;DHT22;29684;47.722;9.388;2023-03-04T17:26:04;7.60;99.90
8662;DHT22;29684;47.722;9.388;2023-03-04T17:28:49;7.50;99.90
8662;DHT22;29684;47.722;9.388;2023-03-04T17:31:35;7.50;99.90
8662;DHT22;29684;47.722;9.388;2023-03-04T17:34:19;7.30;99.90
8662;DHT22;29684;47.722;9.388;2023-03-04T17:37:03;7.10;99.90
8662;DHT22;29684;47.722;9.388;2023-03-04T17:39:48;7.00;99.90
8662;DHT22;29684;47.722;9.388;2023-03-04T17:42:33;6.70;99.90
8662;DHT22;29684;47.722;9.388;2023-03-04T17:45:17;6.60;99.90
8662;DHT22;29684;47.722;9.388;2023-03-04T17:48:01;6.30;99.90
8662;DHT22;29684;47.722;9.388;2023-03-04T17:50:51;6.30;99.90
8662;DHT22;29684;47.722;9.388;2023-03-04T17:53:37;6.20;99.90
8662;DHT22;29684;47.722;9.388;2023-03-04T17:56:21;6.10;99.90
8662;DHT22;29684;47.722;9.388;2023-03-04T17:59:10;6.00;99.90
8662;DHT22;29684;47.722;9.388;2023-03-04T18:01:55;5.80;99.90
8662;DHT22;29684;47.722;9.388;2023-03-04T18:04:40;5.70;99.90
8662;DHT22;29684;47.722;9.388;2023-03-04T18:07:24;5.60;99.90
8662;DHT22;29684;47.722;9.388;2023-03-04T18:10:09;5.40;99.90
8662;DHT22;29684;47.722;9.388;2023-03-04T18:12:53;5.30;99.90
8662;DHT22;29684;47.722;9.388;2023-03-04T18:15:37;5.10;99.90
8662;DHT22;29684;47.722;9.388;2023-03-04T18:18:23;5.10;99.90
8662;DHT22;29684;47.722;9.388;2023-03-04T18:21:07;4.90;99.90
8662;DHT22;29684;47.722;9.388;2023-03-04T18:23:52;4.80;99.90
8662;DHT22;29684;47.722;9.388;2023-03-04T18:26:36;4.80;99.90
8662;DHT22;29684;47.722;9.388;2023-03-04T18:29:20;4.60;99.90
8662;DHT22;29684;47.722;9.388;2023-03-04T18:32:05;4.40;99.90
8662;DHT22;29684;47.722;9.388;2023-03-04T18:34:49;4.20;99.90
8662;DHT22;29684;47.722;9.388;2023-03-04T18:37:33;4.10;99.90
8662;DHT22;29684;47.722;9.388;2023-03-04T18:40:18;3.90;99.90
8662;DHT22;29684;47.722;9.388;2023-03-04T18:43:02;4.00;99.90
8662;DHT22;29684;47.722;9.388;2023-03-04T18:45:47;3.90;99.90
8662;DHT22;29684;47.722;9.388;2023-03-04T18:48:47;3.70;99.90
8662;DHT22;29684;47.722;9.388;2023-03-04T18:51:32;3.70;99.90
8662;DHT22;29684;47.722;9.388;2023-03-04T18:54:16;3.50;99.90
8662;DHT22;29684;47.722;9.388;2023-03-04T18:57:07;3.40;99.90
8662;DHT22;29684;47.722;9.388;2023-03-04T18:59:58;3.40;99.90
8662;DHT22;29684;47.722;9.388;2023-03-04T19:02:55;3.20;99.90
8662;DHT22;29684;47.722;9.388;2023-03-04T19:05:42;3.10;99.90
8662;DHT22;29684;47.722;9.388;2023-03-04T19:08:27;3.10;99.90
8662;DHT22;29684;47.722;9.388;2023-03-04T19:11:11;3.00;99.90
8662;DHT22;29684;47.722;9.388;2023-03-04T19:13:56;3.00;99.90
8662;DHT22;29684;47.722;9.388;2023-03-04T19:16:40;3.00;99.90
8662;DHT22;29684;47.722;9.388;2023-03-04T19:19:25;2.90;99.90
8662;DHT22;29684;47.722;9.388;2023-03-04T19:22:09;2.90;99.90
8662;DHT22;29684;47.722;9.388;2023-03-04T19:24:53;2.80;99.90
8662;DHT22;29684;47.722;9.388;2023-03-04T19:27:37;2.70;99.90
8662;DHT22;29684;47.722;9.388;2023-03-04T19:30:22;2.70;99.90
8662;DHT22;29684;47.722;9.388;2023-03-04T19:33:07;2.70;99.90
8662;DHT22;29684;47.722;9.388;2023-03-04T19:35:51;2.70;99.90
8662;DHT22;29684;47.722;9.388;2023-03-04T19:38:36;2.60;99.90